Time;durP1;ratioP1;P1;durP2;ratioP2;P2;SDS_P1;SDS_P2;PMS_P1;PMS_P2;Temp;Humidity;BMP_temperature;BMP_pressure;BME280_temperature;BME280_humidity;BME280_pressure;Samples;Min_cycle;Max_cycle;Signal;HPM_P1;HPM_P2
2021/11/19 00:02:08;;;;;;;;;;;;;;;18.36;67.62;101818.38;5049121;28;1680;-65
2021/11/19 00:04:36;;;;;;;;;;;;;;;18.48;66.17;101815.72;5035255;28;1977;-67
2021/11/19 00:07:04;;;;;;;;;;;;;;;18.38;68.11;101819.13;5042589;28;1678;-65
2021/11/19 00:09:31;;;;;;;;;;;;;;;18.30;68.10;101825.00;5040519;28;1573;-65
2021/11/19 00:11:58;;;;;;;;;;;;;;;18.41;66.55;101816.25;5035403;28;1445;-65
2021/11/19 00:14:25;;;;;;;;;;;;;;;18.48;66.62;101823.75;5039343;28;1508;-67
2021/11/19 00:16:57;;;;;;;;;;;;;;;18.59;66.44;101839.06;5047824;28;1560;-66
2021/11/19 00:19:25;;;;;;;;;;;;;;;18.40;67.58;101830.59;5041437;28;1573;-65
2021/11/19 00:21:52;;;;;;;;;;;;;;;18.31;67.29;101839.28;5040050;28;1448;-66
2021/11/19 00:24:19;;;;;;;;;;;;;;;18.47;66.34;101842.59;5044559;28;1910;-68
2021/11/19 00:26:46;;;;;;;;;;;;;;;18.62;65.50;101852.28;5041661;28;1396;-67
2021/11/19 00:29:14;;;;;;;;;;;;;;;18.34;67.77;101852.44;5039137;28;1712;-67
2021/11/19 00:31:41;;;;;;;;;;;;;;;18.22;67.67;101856.81;5040293;28;1495;-65
2021/11/19 00:34:07;;;;;;;;;;;;;;;18.42;66.20;101869.72;5037734;28;1664;-67
2021/11/19 00:36:37;;;;;;;;;;;;;;;18.57;65.45;101859.75;5038259;28;1562;-67
2021/11/19 00:39:05;;;;;;;;;;;;;;;18.55;66.46;101848.28;5037891;28;1543;-67
2021/11/19 00:41:31;;;;;;;;;;;;;;;18.33;67.31;101858.78;5039756;28;1390;-65
2021/11/19 00:43:58;;;;;;;;;;;;;;;18.32;66.42;101855.22;5036248;28;1905;-65
2021/11/19 00:46:25;;;;;;;;;;;;;;;18.42;66.17;101850.09;5039743;28;1447;-65
2021/11/19 00:48:51;;;;;;;;;;;;;;;18.56;65.08;101847.34;5036335;28;1515;-67
2021/11/19 00:51:20;;;;;;;;;;;;;;;18.33;67.14;101850.75;5038635;28;1623;-65
2021/11/19 00:53:49;;;;;;;;;;;;;;;18.26;66.97;101837.78;5044079;28;1700;-67
2021/11/19 00:56:17;;;;;;;;;;;;;;;18.45;66.04;101852.56;5039836;28;1392;-68
2021/11/19 00:58:44;;;;;;;;;;;;;;;18.52;65.78;101845.81;5038612;28;1586;-68
2021/11/19 01:01:12;;;;;;;;;;;;;;;18.32;67.28;101828.44;5042519;28;1526;-65
2021/11/19 01:03:39;;;;;;;;;;;;;;;18.37;66.06;101846.88;5036917;28;1933;-66
2021/11/19 01:06:05;;;;;;;;;;;;;;;18.48;65.18;101844.31;5045619;28;1483;-67
2021/11/19 01:08:32;;;;;;;;;;;;;;;18.55;65.90;101832.22;5041446;28;1620;-67
2021/11/19 01:11:02;;;;;;;;;;;;;;;18.37;66.47;101837.03;5043660;28;1083;-65
2021/11/19 01:13:29;;;;;;;;;;;;;;;18.23;67.36;101835.28;5048715;28;1680;-65
2021/11/19 01:15:57;;;;;;;;;;;;;;;18.36;65.91;101842.47;5039851;28;1632;-65
2021/11/19 01:18:26;;;;;;;;;;;;;;;18.54;65.70;101830.47;5041641;28;1463;-65
2021/11/19 01:20:54;;;;;;;;;;;;;;;18.37;66.66;101831.66;5041485;28;1476;-65
2021/11/19 01:23:21;;;;;;;;;;;;;;;18.20;66.90;101829.28;5034386;28;1906;-67
2021/11/19 01:25:51;;;;;;;;;;;;;;;18.38;65.80;101827.16;5033267;28;978;-67
2021/11/19 01:28:20;;;;;;;;;;;;;;;18.51;64.78;101828.03;5032358;28;1724;-65
2021/11/19 01:30:48;;;;;;;;;;;;;;;18.36;66.80;101829.09;5034653;28;1613;-67
2021/11/19 01:33:14;;;;;;;;;;;;;;;18.27;66.86;101834.13;5041401;28;1540;-65
2021/11/19 01:35:41;;;;;;;;;;;;;;;18.39;65.37;101821.69;5041369;28;1561;-65
2021/11/19 01:38:08;;;;;;;;;;;;;;;18.55;64.70;101809.94;5044067;28;1046;-65
2021/11/19 01:40:36;;;;;;;;;;;;;;;18.36;66.83;101807.66;5042425;28;1779;-67
2021/11/19 01:43:08;;;;;;;;;;;;;;;18.20;67.23;101803.34;5034660;28;1983;-67
2021/11/19 01:45:37;;;;;;;;;;;;;;;18.36;65.25;101811.19;5041904;28;1612;-67
2021/11/19 01:48:06;;;;;;;;;;;;;;;18.50;65.48;101799.53;5042362;28;1509;-67
2021/11/19 01:50:33;;;;;;;;;;;;;;;18.47;65.84;101805.97;5041079;28;1589;-65
2021/11/19 01:53:04;;;;;;;;;;;;;;;18.32;66.62;101800.81;5033711;28;1576;-68
2021/11/19 01:55:34;;;;;;;;;;;;;;;18.34;65.60;101801.56;5035762;28;1701;-66
2021/11/19 01:58:06;;;;;;;;;;;;;;;18.51;64.67;101809.28;5042929;28;1505;-67
2021/11/19 02:00:34;;;;;;;;;;;;;;;18.54;65.55;101803.69;5045459;28;1501;-65
2021/11/19 02:03:02;;;;;;;;;;;;;;;18.37;65.89;101815.59;5039398;28;1530;-67
2021/11/19 02:05:33;;;;;;;;;;;;;;;18.28;65.54;101822.47;5031581;28;1967;-66
2021/11/19 02:08:01;;;;;;;;;;;;;;;18.42;65.13;101805.44;5043743;28;1066;-65
2021/11/19 02:10:31;;;;;;;;;;;;;;;18.61;64.51;101809.50;5039390;28;1696;-65
2021/11/19 02:13:02;;;;;;;;;;;;;;;18.38;66.50;101803.94;5048977;28;1684;-65
2021/11/19 02:15:30;;;;;;;;;;;;;;;18.27;66.47;101812.69;5044766;28;1452;-66
2021/11/19 02:17:59;;;;;;;;;;;;;;;18.35;65.11;101801.47;5041131;28;1605;-67
2021/11/19 02:20:29;;;;;;;;;;;;;;;18.51;64.32;101801.25;5043713;28;968;-65
2021/11/19 02:22:57;;;;;;;;;;;;;;;18.35;66.59;101796.09;5037117;28;1512;-66
2021/11/19 02:25:25;;;;;;;;;;;;;;;18.25;66.04;101781.63;5039384;28;1973;-67
2021/11/19 02:27:53;;;;;;;;;;;;;;;18.33;65.57;101790.00;5034147;28;1775;-67
2021/11/19 02:30:22;;;;;;;;;;;;;;;18.47;64.70;101794.41;5036522;28;1430;-65
2021/11/19 02:32:59;;;;;;;;;;;;;;;18.40;66.04;101803.81;5044999;28;1553;-65
2021/11/19 02:35:29;;;;;;;;;;;;;;;18.25;66.37;101795.88;5040335;28;1334;-67
2021/11/19 02:37:58;;;;;;;;;;;;;;;18.31;65.67;101797.28;5035455;28;1322;-65
2021/11/19 02:40:27;;;;;;;;;;;;;;;18.49;65.36;101800.50;5046609;28;1899;-65
2021/11/19 02:42:56;;;;;;;;;;;;;;;18.52;65.13;101797.59;5036423;28;1531;-65
2021/11/19 02:45:24;;;;;;;;;;;;;;;18.31;66.73;101780.38;5038940;28;1979;-65
2021/11/19 02:47:51;;;;;;;;;;;;;;;18.23;66.42;101787.09;5044558;28;1447;-66
2021/11/19 02:50:19;;;;;;;;;;;;;;;18.38;66.27;101778.94;5035940;28;969;-65
2021/11/19 02:52:46;;;;;;;;;;;;;;;18.46;65.94;101790.00;5044905;28;1520;-66
2021/11/19 02:55:16;;;;;;;;;;;;;;;18.28;67.16;101787.66;5040515;28;1532;-67
2021/11/19 02:57:43;;;;;;;;;;;;;;;18.17;66.76;101795.53;5036115;28;1578;-68
2021/11/19 03:02:47;;;;;;;;;;;;;;;18.44;66.31;101794.59;5040890;22;1853;-52
2021/11/19 03:05:22;;;;;;;;;;;;;;;18.47;66.93;101792.56;5008956;28;1976;-51
2021/11/19 03:07:49;;;;;;;;;;;;;;;18.25;67.63;101809.25;5007693;28;1800;-51
2021/11/19 03:10:33;;;;;;;;;;;;;;;18.21;67.73;101799.72;5003778;28;1707;-51
2021/11/19 03:13:16;;;;;;;;;;;;;;;18.39;67.19;101805.63;5027711;28;1842;-51
2021/11/19 03:15:47;;;;;;;;;;;;;;;18.47;66.85;101816.66;4999083;28;1589;-51
2021/11/19 03:18:18;;;;;;;;;;;;;;;18.40;67.75;101799.34;5009449;28;1572;-52
2021/11/19 03:20:46;;;;;;;;;;;;;;;18.27;67.76;101810.00;5000835;28;1799;-52
2021/11/19 03:23:21;;;;;;;;;;;;;;;18.23;67.36;101803.16;5032431;28;1740;-52
2021/11/19 03:25:49;;;;;;;;;;;;;;;18.40;66.71;101809.16;5015442;28;1962;-51
2021/11/19 03:28:21;;;;;;;;;;;;;;;18.47;66.84;101805.97;5013727;28;1812;-51
2021/11/19 03:30:50;;;;;;;;;;;;;;;18.29;67.92;101797.38;5013801;28;2011;-51
2021/11/19 03:33:26;;;;;;;;;;;;;;;18.18;68.07;101797.25;5029126;28;1999;-51
2021/11/19 03:35:53;;;;;;;;;;;;;;;18.34;67.66;101789.00;4996271;28;1783;-52
2021/11/19 03:38:31;;;;;;;;;;;;;;;18.45;67.60;101790.97;5009095;28;1751;-52
2021/11/19 03:41:09;;;;;;;;;;;;;;;18.30;67.92;101784.84;5003270;28;1736;-51
2021/11/19 03:43:37;;;;;;;;;;;;;;;18.20;68.12;101787.28;5013076;28;1779;-51
2021/11/19 03:46:14;;;;;;;;;;;;;;;18.24;68.19;101787.94;5013663;28;1891;-52
2021/11/19 03:48:45;;;;;;;;;;;;;;;18.39;67.33;101780.69;4996641;28;1953;-52
2021/11/19 03:51:14;;;;;;;;;;;;;;;18.33;67.93;101784.63;5001758;28;1717;-52
2021/11/19 03:53:45;;;;;;;;;;;;;;;18.20;68.14;101787.28;5002808;28;1603;-52
2021/11/19 03:56:15;;;;;;;;;;;;;;;18.22;68.04;101784.50;5008042;28;1685;-52
2021/11/19 03:58:45;;;;;;;;;;;;;;;18.36;67.67;101794.28;5013363;28;1668;-51
2021/11/19 04:01:16;;;;;;;;;;;;;;;18.32;68.17;101784.75;5014232;28;1757;-52
2021/11/19 04:03:48;;;;;;;;;;;;;;;18.23;68.10;101780.88;5004575;28;1744;-51
2021/11/19 04:06:19;;;;;;;;;;;;;;;18.21;67.92;101772.09;5008743;28;1698;-52
2021/11/19 04:08:48;;;;;;;;;;;;;;;18.34;67.97;101782.81;5012583;28;1768;-51
2021/11/19 04:11:25;;;;;;;;;;;;;;;18.42;67.70;101777.78;5029170;28;1614;-51
2021/11/19 04:13:56;;;;;;;;;;;;;;;18.28;68.51;101776.94;5014336;28;1654;-51
2021/11/19 04:16:33;;;;;;;;;;;;;;;18.20;67.78;101781.94;5003411;28;1789;-51
2021/11/19 04:19:00;;;;;;;;;;;;;;;18.24;68.06;101767.41;5006092;28;1960;-52
2021/11/19 04:21:35;;;;;;;;;;;;;;;18.35;68.20;101779.19;5015231;28;1617;-51
2021/11/19 04:24:23;;;;;;;;;;;;;;;18.34;67.67;101793.53;5009364;28;1902;-52
2021/11/19 04:27:00;;;;;;;;;;;;;;;18.21;68.62;101780.13;4993967;28;1139;-51
2021/11/19 04:29:29;;;;;;;;;;;;;;;18.24;67.63;101780.78;4997631;28;1743;-51
2021/11/19 04:31:59;;;;;;;;;;;;;;;18.33;68.37;101783.78;5006825;28;1833;-51
2021/11/19 04:34:29;;;;;;;;;;;;;;;18.40;67.32;101787.75;5014121;28;1775;-51
2021/11/19 04:37:03;;;;;;;;;;;;;;;18.23;68.70;101776.38;5012543;28;1910;-51
2021/11/19 04:39:40;;;;;;;;;;;;;;;18.15;68.16;101773.38;5016834;28;1712;-51
2021/11/19 04:42:07;;;;;;;;;;;;;;;18.27;68.44;101772.53;5033551;28;1085;-52
2021/11/19 04:44:42;;;;;;;;;;;;;;;18.35;68.12;101773.84;5015667;28;1932;-51
2021/11/19 04:47:15;;;;;;;;;;;;;;;18.27;68.63;101774.34;4994773;28;1770;-51
2021/11/19 04:49:42;;;;;;;;;;;;;;;18.20;68.45;101765.03;5006907;28;1690;-52
2021/11/19 05:04:05;;;;;;;;;;;;;;;18.30;67.50;101776.81;4766271;27;10002217;-52
2021/11/19 05:06:40;;;;;;;;;;;;;;;18.19;68.80;101774.88;5114894;28;1733;-52
2021/11/19 05:09:07;;;;;;;;;;;;;;;18.16;68.44;101756.34;5117176;27;1729;-52
2021/11/19 05:11:39;;;;;;;;;;;;;;;18.26;67.95;101756.56;5114874;27;1910;-51
2021/11/19 05:14:08;;;;;;;;;;;;;;;18.32;68.32;101764.16;5114318;28;1584;-52
2021/11/19 05:16:35;;;;;;;;;;;;;;;18.20;68.55;101771.22;5120961;28;1593;-51
2021/11/19 05:19:06;;;;;;;;;;;;;;;18.12;68.74;101778.94;5114251;27;1634;-52
2021/11/19 05:21:47;;;;;;;;;;;;;;;18.21;68.43;101761.41;5112185;28;1141;-52
2021/11/19 05:24:16;;;;;;;;;;;;;;;18.30;68.20;101782.16;5113982;28;2067;-52
2021/11/19 05:26:44;;;;;;;;;;;;;;;18.25;68.73;101785.16;5110435;28;1676;-52
2021/11/19 05:29:22;;;;;;;;;;;;;;;18.17;68.54;101786.66;5116777;28;1657;-52
2021/11/19 05:34:39;;;;;;;;;;;;;;;18.31;68.40;101791.06;5111227;28;2384;-52
2021/11/19 05:37:06;;;;;;;;;;;;;;;18.40;68.17;101793.09;5107730;28;1521;-52
2021/11/19 05:39:36;;;;;;;;;;;;;;;18.18;68.88;101780.34;5115952;28;1564;-53
2021/11/19 05:42:03;;;;;;;;;;;;;;;18.21;68.86;101810.44;4755806;27;10000329;-52
2021/11/19 05:44:32;;;;;;;;;;;;;;;18.28;68.74;101810.88;5120420;28;1313;-52
2021/11/19 05:47:01;;;;;;;;;;;;;;;18.43;67.80;101811.66;5117438;28;1989;-52
2021/11/19 05:49:28;;;;;;;;;;;;;;;18.32;67.94;101808.84;5112178;27;1668;-51
2021/11/19 05:51:58;;;;;;;;;;;;;;;18.20;68.56;101802.50;5117829;28;1905;-51
2021/11/19 05:54:28;;;;;;;;;;;;;;;18.32;68.44;101804.34;5106557;28;1452;-52
2021/11/19 05:57:01;;;;;;;;;;;;;;;18.39;68.07;101797.59;5106435;28;1064;-52
2021/11/19 05:59:38;;;;;;;;;;;;;;;18.32;68.51;101803.47;5107380;28;1879;-51
2021/11/19 06:02:06;;;;;;;;;;;;;;;18.27;68.58;101798.44;5106414;28;1710;-51
2021/11/19 06:04:33;;;;;;;;;;;;;;;18.23;69.02;101792.44;5099938;28;1866;-51
2021/11/19 06:07:01;;;;;;;;;;;;;;;18.40;68.06;101782.38;5108237;28;1641;-52
2021/11/19 06:09:30;;;;;;;;;;;;;;;18.39;68.43;101781.53;5083910;27;11719;-51
2021/11/19 06:12:02;;;;;;;;;;;;;;;18.35;68.05;101785.38;5083620;28;1968;-50
2021/11/19 06:14:33;;;;;;;;;;;;;;;18.27;68.81;101788.59;5082785;28;1903;-50
2021/11/19 06:17:03;;;;;;;;;;;;;;;18.40;67.77;101777.03;5075855;28;2714;-50
2021/11/19 06:19:37;;;;;;;;;;;;;;;18.54;68.23;101779.59;5078772;28;1601;-53
2021/11/19 06:22:19;;;;;;;;;;;;;;;18.28;69.17;101794.78;5071545;28;1395;-53
2021/11/19 06:24:46;;;;;;;;;;;;;;;18.32;68.57;101792.78;5072541;28;1678;-52
2021/11/19 06:27:26;;;;;;;;;;;;;;;18.40;68.12;101791.28;5075410;28;1499;-53
2021/11/19 06:29:56;;;;;;;;;;;;;;;18.49;68.12;101797.81;5074927;28;1583;-52
2021/11/19 06:32:28;;;;;;;;;;;;;;;18.37;68.30;101801.34;5081237;28;1981;-50
2021/11/19 06:35:22;;;;;;;;;;;;;;;18.26;64.81;101794.94;5088065;28;1333;-52
2021/11/19 06:37:52;;;;;;;;;;;;;;;18.18;65.04;101786.53;5072510;28;1927;-52
2021/11/19 06:40:21;;;;;;;;;;;;;;;18.25;68.80;101793.19;5071303;28;1146;-53
2021/11/19 06:42:47;;;;;;;;;;;;;;;18.20;68.99;101797.16;5079852;28;1956;-49
2021/11/19 06:45:18;;;;;;;;;;;;;;;18.21;68.76;101786.34;5075262;28;1923;-49
2021/11/19 06:47:48;;;;;;;;;;;;;;;18.25;68.98;101801.22;5073695;28;1425;-49
2021/11/19 06:50:36;;;;;;;;;;;;;;;18.27;68.58;101803.81;5077994;28;1834;-49
2021/11/19 06:53:07;;;;;;;;;;;;;;;18.21;68.95;101810.44;5091050;28;1913;-52
2021/11/19 06:55:36;;;;;;;;;;;;;;;18.19;69.07;101804.34;5079239;28;1046;-52
2021/11/19 06:58:03;;;;;;;;;;;;;;;18.23;68.96;101807.66;5084151;28;1903;-52
2021/11/19 07:00:40;;;;;;;;;;;;;;;18.25;68.61;101816.44;5079777;28;1884;-52
2021/11/19 07:03:08;;;;;;;;;;;;;;;18.15;69.07;101801.97;5074046;28;1963;-53
2021/11/19 07:05:40;;;;;;;;;;;;;;;18.15;69.07;101804.66;5081620;28;1604;-53
2021/11/19 07:08:16;;;;;;;;;;;;;;;18.22;68.79;101820.19;5078599;28;1519;-52
2021/11/19 07:10:44;;;;;;;;;;;;;;;18.21;68.62;101805.09;5078658;28;1684;-52
2021/11/19 07:13:14;;;;;;;;;;;;;;;18.21;68.64;101802.41;5079035;28;1915;-51
2021/11/19 07:15:42;;;;;;;;;;;;;;;18.18;69.07;101807.97;5071374;28;1867;-52
2021/11/19 07:18:13;;;;;;;;;;;;;;;18.23;69.03;101803.16;5071318;28;1794;-51
2021/11/19 07:20:40;;;;;;;;;;;;;;;18.22;68.64;101792.53;5077200;28;1543;-52
2021/11/19 07:23:08;;;;;;;;;;;;;;;18.16;68.80;101793.81;5079106;28;1732;-52
2021/11/19 07:25:39;;;;;;;;;;;;;;;18.16;68.95;101796.50;5086446;28;1482;-52
2021/11/19 07:28:07;;;;;;;;;;;;;;;18.21;68.97;101794.38;5073440;28;1500;-52
2021/11/19 07:30:43;;;;;;;;;;;;;;;18.38;68.38;101789.66;5073311;28;1732;-51
2021/11/19 07:33:10;;;;;;;;;;;;;;;18.33;68.94;101786.47;5086019;28;1906;-51
2021/11/19 07:35:39;;;;;;;;;;;;;;;18.47;67.93;101797.06;5077572;28;1684;-51
2021/11/19 07:38:09;;;;;;;;;;;;;;;18.46;68.16;101792.66;5074022;28;1804;-51
2021/11/19 07:40:40;;;;;;;;;;;;;;;18.47;68.12;101789.88;5080035;28;1559;-51
2021/11/19 07:45:53;;;;;;;;;;;;;;;18.63;67.45;101795.03;5076414;28;2357;-50
2021/11/19 07:48:27;;;;;;;;;;;;;;;18.61;67.58;101796.97;5081411;28;1513;-50
2021/11/19 07:50:55;;;;;;;;;;;;;;;18.62;67.72;101805.84;5075287;28;1552;-50
2021/11/19 07:53:24;;;;;;;;;;;;;;;18.61;68.10;101796.97;5076240;28;1908;-49
2021/11/19 07:55:53;;;;;;;;;;;;;;;18.51;68.69;101795.03;5074785;28;1706;-48
2021/11/19 07:58:22;;;;;;;;;;;;;;;18.57;68.58;101795.47;5077037;28;1544;-50
2021/11/19 08:00:49;;;;;;;;;;;;;;;18.80;67.78;101784.97;5075772;28;1539;-51
2021/11/19 08:03:19;;;;;;;;;;;;;;;18.85;66.73;101802.44;5074968;28;1541;-53
2021/11/19 08:05:47;;;;;;;;;;;;;;;18.73;67.38;101794.38;5079968;28;1141;-52
2021/11/19 08:08:15;;;;;;;;;;;;;;;18.66;67.94;101802.88;5082538;28;1749;-52
2021/11/19 08:10:51;;;;;;;;;;;;;;;18.81;67.83;101803.63;5076276;28;1398;-52
2021/11/19 08:13:22;;;;;;;;;;;;;;;18.72;68.01;101803.38;5080265;28;1910;-53
2021/11/19 08:15:48;;;;;;;;;;;;;;;18.83;67.88;101811.56;5076244;28;1655;-52
2021/11/19 08:18:20;;;;;;;;;;;;;;;18.80;67.78;101798.38;5079134;28;1649;-52
2021/11/19 08:20:48;;;;;;;;;;;;;;;18.80;68.48;101796.56;5079632;28;1171;-52
2021/11/19 08:23:15;;;;;;;;;;;;;;;18.83;68.95;101790.13;5083801;28;1870;-52
2021/11/19 08:25:42;;;;;;;;;;;;;;;18.68;68.70;101781.28;5078005;28;1800;-52
2021/11/19 08:28:12;;;;;;;;;;;;;;;18.78;68.76;101797.56;5071787;28;1319;-52
2021/11/19 08:30:43;;;;;;;;;;;;;;;18.71;69.97;101780.25;5076762;28;1956;-52
2021/11/19 08:33:11;;;;;;;;;;;;;;;18.69;69.15;101786.56;5071801;28;1930;-52
2021/11/19 08:35:39;;;;;;;;;;;;;;;18.74;69.13;101790.72;5078584;28;1501;-52
2021/11/19 08:38:09;;;;;;;;;;;;;;;18.79;68.87;101783.22;5086056;28;1810;-52
2021/11/19 08:40:42;;;;;;;;;;;;;;;18.70;68.81;101779.38;5070032;28;1719;-52
2021/11/19 08:43:10;;;;;;;;;;;;;;;18.76;69.41;101786.13;5075157;28;1567;-52
2021/11/19 08:45:37;;;;;;;;;;;;;;;18.67;69.48;101764.38;5072880;28;1718;-52
2021/11/19 08:48:14;;;;;;;;;;;;;;;18.69;69.27;101761.59;5072165;28;1423;-52
2021/11/19 08:50:49;;;;;;;;;;;;;;;18.74;68.90;101759.44;5079439;28;1192;-51
2021/11/19 08:53:16;;;;;;;;;;;;;;;18.75;68.75;101755.78;5077367;28;1910;-52
2021/11/19 08:55:45;;;;;;;;;;;;;;;18.72;68.63;101755.16;5069678;28;1770;-51
2021/11/19 08:58:12;;;;;;;;;;;;;;;18.76;68.73;101752.16;5075954;28;1979;-51
2021/11/19 09:00:41;;;;;;;;;;;;;;;18.83;68.62;101741.88;5085548;28;1585;-53
2021/11/19 09:03:15;;;;;;;;;;;;;;;18.87;68.53;101738.00;5079508;28;1883;-52
2021/11/19 09:05:44;;;;;;;;;;;;;;;18.79;69.28;101729.63;5078006;28;1560;-52
2021/11/19 09:08:12;;;;;;;;;;;;;;;18.77;68.96;101727.06;5082297;28;1482;-51
2021/11/19 09:10:41;;;;;;;;;;;;;;;18.77;69.15;101742.28;5078232;28;1536;-53
2021/11/19 09:13:07;;;;;;;;;;;;;;;18.77;68.72;101737.78;5077342;28;1980;-52
2021/11/19 09:15:36;;;;;;;;;;;;;;;18.82;69.28;101729.44;5073491;28;1700;-52
2021/11/19 09:18:07;;;;;;;;;;;;;;;18.89;68.78;101720.00;5069839;28;1890;-53
2021/11/19 09:20:47;;;;;;;;;;;;;;;18.90;69.36;101734.25;5078538;28;1034;-52
2021/11/19 09:23:15;;;;;;;;;;;;;;;18.77;68.91;101727.06;5081565;28;1754;-52
2021/11/19 09:25:44;;;;;;;;;;;;;;;18.65;69.46;101702.00;5074418;28;1809;-52
2021/11/19 09:28:14;;;;;;;;;;;;;;;18.81;68.59;101700.94;5075472;28;1614;-52
2021/11/19 09:30:44;;;;;;;;;;;;;;;18.82;68.91;101686.56;5086413;28;1921;-53
2021/11/19 09:33:12;;;;;;;;;;;;;;;18.84;69.03;101698.03;5076127;28;2028;-52
2021/11/19 09:35:43;;;;;;;;;;;;;;;18.76;68.60;101689.66;5079109;28;1698;-52
2021/11/19 09:38:12;;;;;;;;;;;;;;;18.81;68.44;101675.00;5076882;28;1701;-52
2021/11/19 09:40:44;;;;;;;;;;;;;;;18.78;68.44;101679.69;5080820;28;1918;-52
2021/11/19 09:43:17;;;;;;;;;;;;;;;18.91;68.17;101680.53;5078806;28;1572;-52
2021/11/19 09:45:54;;;;;;;;;;;;;;;19.02;68.22;101683.28;5078932;28;1434;-52
2021/11/19 09:48:29;;;;;;;;;;;;;;;18.97;68.97;101663.16;5074518;28;1723;-51
2021/11/19 09:51:10;;;;;;;;;;;;;;;18.87;69.08;101668.31;5082208;28;999;-51
2021/11/19 09:54:02;;;;;;;;;;;;;;;18.95;68.85;101657.91;5073033;28;1932;-53
2021/11/19 09:56:54;;;;;;;;;;;;;;;19.24;67.56;101644.16;5074328;28;2099;-53
2021/11/19 09:59:27;;;;;;;;;;;;;;;19.15;68.62;101655.56;5081090;28;1722;-51
2021/11/19 10:02:17;;;;;;;;;;;;;;;19.08;68.00;101650.66;5080411;28;1733;-52
2021/11/19 10:05:09;;;;;;;;;;;;;;;19.11;67.23;101649.56;5037777;28;1788;-51
2021/11/19 10:07:44;;;;;;;;;;;;;;;19.03;68.78;101650.13;5074226;28;1669;-52
2021/11/19 10:10:47;;;;;;;;;;;;;;;19.03;68.38;101634.06;5081703;28;1762;-52
2021/11/19 10:13:19;;;;;;;;;;;;;;;19.17;67.44;101624.13;5019086;28;1927;-51
2021/11/19 10:15:50;;;;;;;;;;;;;;;19.04;68.63;101627.75;5011254;28;1832;-51
2021/11/19 10:18:30;;;;;;;;;;;;;;;18.94;67.76;101624.03;5060356;28;2023;-51
2021/11/19 10:21:01;;;;;;;;;;;;;;;18.95;67.90;101612.31;5072730;28;959;-51
2021/11/19 10:23:29;;;;;;;;;;;;;;;18.98;69.06;101633.56;5072185;28;1713;-51
2021/11/19 10:26:11;;;;;;;;;;;;;;;19.03;68.34;101617.97;5072949;28;1590;-53
2021/11/19 10:28:43;;;;;;;;;;;;;;;19.01;67.76;101597.63;5072230;28;1962;-53
2021/11/19 10:31:11;;;;;;;;;;;;;;;18.95;68.37;101601.59;5081690;28;1486;-53
2021/11/19 10:33:42;;;;;;;;;;;;;;;18.84;69.06;101604.22;5072324;28;1968;-52
2021/11/19 10:36:19;;;;;;;;;;;;;;;18.97;69.09;101605.03;5072696;28;1458;-54
2021/11/19 10:39:05;;;;;;;;;;;;;;;19.15;68.07;101591.22;5084106;28;1856;-54
2021/11/19 10:41:46;;;;;;;;;;;;;;;19.06;67.72;101580.22;5079234;28;1870;-54
2021/11/19 10:44:33;;;;;;;;;;;;;;;19.18;68.04;101582.91;5078655;28;1981;-55
2021/11/19 10:47:18;;;;;;;;;;;;;;;19.31;68.11;101574.81;5075659;28;1502;-54
2021/11/19 10:50:06;;;;;;;;;;;;;;;19.12;67.76;101580.72;5077986;28;1530;-54
2021/11/19 10:52:50;;;;;;;;;;;;;;;18.96;68.32;101584.56;5074187;28;1527;-54
2021/11/19 10:55:33;;;;;;;;;;;;;;;19.02;68.19;101568.03;5081011;28;2034;-50
2021/11/19 10:58:24;;;;;;;;;;;;;;;19.13;68.08;101567.19;5071339;28;1716;-55
2021/11/19 11:01:14;;;;;;;;;;;;;;;18.97;68.63;101556.78;5081174;28;1542;-53
2021/11/19 11:03:42;;;;;;;;;;;;;;;19.12;68.62;101554.78;5077898;28;1568;-56
2021/11/19 11:06:12;;;;;;;;;;;;;;;19.19;68.77;101549.78;5078052;28;1494;-55
2021/11/19 11:08:45;;;;;;;;;;;;;;;19.15;68.82;101548.31;5078089;28;1487;-55
2021/11/19 11:11:33;;;;;;;;;;;;;;;19.18;68.07;101537.34;5072680;28;1646;-56
2021/11/19 11:14:11;;;;;;;;;;;;;;;19.19;68.36;101539.06;5076739;28;1993;-56
2021/11/19 11:16:40;;;;;;;;;;;;;;;19.19;68.47;101558.69;5081547;28;1381;-55
2021/11/19 11:19:16;;;;;;;;;;;;;;;19.13;68.98;101544.91;5077598;28;1491;-55
2021/11/19 11:22:03;;;;;;;;;;;;;;;18.93;69.48;101559.81;5074588;28;987;-55
2021/11/19 11:24:32;;;;;;;;;;;;;;;18.88;68.32;101526.19;5084125;28;1645;-55
2021/11/19 11:27:04;;;;;;;;;;;;;;;19.05;68.87;101527.56;5083193;28;1090;-55
2021/11/19 11:29:40;;;;;;;;;;;;;;;19.10;68.47;101540.63;5071253;28;1850;-55
2021/11/19 11:32:40;;;;;;;;;;;;;;;18.91;68.60;101529.59;5087951;28;2166;-54
2021/11/19 11:35:17;;;;;;;;;;;;;;;19.02;68.57;101506.38;5045570;28;1902;-55
2021/11/19 11:37:51;;;;;;;;;;;;;;;19.11;68.37;101509.31;5073111;28;1673;-52
2021/11/19 11:40:24;;;;;;;;;;;;;;;19.10;68.14;101508.47;5073743;28;1741;-55
2021/11/19 11:42:55;;;;;;;;;;;;;;;19.00;68.68;101505.63;5073445;28;1684;-53
2021/11/19 11:45:25;;;;;;;;;;;;;;;18.80;65.80;101503.59;5079156;28;1576;-53
2021/11/19 11:48:02;;;;;;;;;;;;;;;18.93;68.14;101508.91;5081792;28;1597;-53
2021/11/19 11:53:28;;;;;;;;;;;;;;;18.89;68.11;101500.22;5077466;28;2450;-54
2021/11/19 11:56:18;;;;;;;;;;;;;;;19.03;68.77;101491.97;5078164;28;2514;-55
2021/11/19 11:58:48;;;;;;;;;;;;;;;19.02;67.87;101490.28;5075349;28;1499;-54
2021/11/19 12:01:32;;;;;;;;;;;;;;;19.03;66.83;101478.56;5074882;28;2101;-54
2021/11/19 12:04:01;;;;;;;;;;;;;;;19.01;66.86;101488.56;5075076;28;1729;-55
2021/11/19 12:06:40;;;;;;;;;;;;;;;18.80;67.16;101490.19;5071884;28;1932;-55
2021/11/19 12:09:20;;;;;;;;;;;;;;;18.74;66.86;101486.16;5080214;28;1605;-54
2021/11/19 12:12:05;;;;;;;;;;;;;;;18.80;65.07;101487.53;5071175;28;1876;-54
2021/11/19 12:14:40;;;;;;;;;;;;;;;18.79;65.97;101499.19;5079971;28;1901;-54
2021/11/19 12:17:12;;;;;;;;;;;;;;;18.74;66.43;101496.88;5070711;28;1793;-54
2021/11/19 12:19:40;;;;;;;;;;;;;;;18.79;66.97;101489.34;5084469;28;1431;-54
2021/11/19 12:22:12;;;;;;;;;;;;;;;18.76;65.34;101477.97;5069909;28;1587;-54
2021/11/19 12:24:57;;;;;;;;;;;;;;;18.76;65.10;101475.28;5080560;28;1157;-55
2021/11/19 12:27:43;;;;;;;;;;;;;;;18.78;65.30;101479.59;5086731;28;2013;-55
2021/11/19 12:30:15;;;;;;;;;;;;;;;18.72;64.66;101458.63;5073949;28;1817;-55
2021/11/19 12:32:45;;;;;;;;;;;;;;;18.73;65.30;101480.91;5070289;28;1431;-52
2021/11/19 12:35:18;;;;;;;;;;;;;;;18.68;63.73;101475.88;5077611;28;1973;-52
2021/11/19 12:37:55;;;;;;;;;;;;;;;18.76;64.69;101472.63;5077830;28;1936;-52
2021/11/19 12:40:28;;;;;;;;;;;;;;;18.73;63.61;101473.72;5073123;28;1718;-52
2021/11/19 12:42:56;;;;;;;;;;;;;;;18.69;64.03;101446.28;5074442;28;1769;-52
2021/11/19 12:45:24;;;;;;;;;;;;;;;18.71;64.45;101450.69;5078089;28;1584;-52
2021/11/19 12:48:22;;;;;;;;;;;;;;;18.76;62.95;101461.91;5078798;28;1747;-53
2021/11/19 12:50:54;;;;;;;;;;;;;;;18.74;63.58;101469.19;5079066;28;1094;-54
2021/11/19 12:53:33;;;;;;;;;;;;;;;18.67;63.67;101440.19;5069736;28;1843;-54
2021/11/19 12:56:20;;;;;;;;;;;;;;;18.66;63.60;101451.03;5075727;28;1841;-54
2021/11/19 12:58:51;;;;;;;;;;;;;;;18.69;63.77;101454.34;5078518;28;1723;-54
2021/11/19 13:01:26;;;;;;;;;;;;;;;18.62;63.15;101460.28;5085390;28;1799;-54
2021/11/19 13:04:19;;;;;;;;;;;;;;;18.52;63.05;101460.09;5082057;28;1682;-54
2021/11/19 13:06:55;;;;;;;;;;;;;;;18.48;63.40;101470.22;5087959;28;1060;-54
2021/11/19 13:09:45;;;;;;;;;;;;;;;18.53;63.79;101474.38;5084291;28;1170;-54
2021/11/19 13:12:28;;;;;;;;;;;;;;;18.58;64.37;101473.06;5078102;28;1857;-54
2021/11/19 13:15:11;;;;;;;;;;;;;;;18.47;64.14;101470.31;5045139;28;2000;-54
2021/11/19 13:17:55;;;;;;;;;;;;;;;18.48;63.71;101462.19;5069772;28;1789;-54
2021/11/19 13:20:33;;;;;;;;;;;;;;;18.48;61.81;101458.63;5087698;28;983;-50
2021/11/19 13:23:29;;;;;;;;;;;;;;;18.59;63.65;101460.53;5079368;28;1780;-53
2021/11/19 13:25:59;;;;;;;;;;;;;;;18.58;63.41;101465.03;5084847;28;1517;-54
2021/11/19 13:28:49;;;;;;;;;;;;;;;18.53;63.60;101463.66;5079597;28;1654;-53
2021/11/19 13:31:28;;;;;;;;;;;;;;;18.58;63.58;101467.72;5073478;28;2003;-53
2021/11/19 13:34:19;;;;;;;;;;;;;;;18.54;63.98;101479.59;5076416;28;1910;-54
2021/11/19 13:36:47;;;;;;;;;;;;;;;18.52;63.36;101478.84;5074588;28;1498;-53
2021/11/19 13:39:31;;;;;;;;;;;;;;;18.51;64.54;101473.63;5084868;28;1660;-53